createdAt,value
2018-12-15T00:00:06.918Z,4.41
2018-12-15T00:03:31.675Z,4.37
2018-12-15T00:06:56.379Z,4.44
2018-12-15T00:10:21.151Z,4.46
2018-12-15T00:13:45.863Z,4.47
2018-12-15T00:17:10.620Z,4.48
2018-12-15T00:20:35.355Z,4.51
2018-12-15T00:24:00.118Z,4.55
2018-12-15T00:27:24.825Z,4.41
2018-12-15T00:30:49.653Z,4.44
2018-12-15T00:34:14.378Z,4.39
2018-12-15T00:37:39.173Z,4.43
2018-12-15T00:41:04.179Z,4.35
2018-12-15T00:44:28.918Z,4.33
2018-12-15T00:47:53.568Z,4.41
2018-12-15T00:51:18.643Z,4.31
2018-12-15T00:54:43.359Z,4.34
2018-12-15T00:58:08.033Z,4.37
2018-12-15T01:01:32.729Z,4.34
2018-12-15T01:04:57.406Z,4.39
2018-12-15T01:08:22.077Z,4.51
2018-12-15T01:11:46.780Z,4.34
2018-12-15T01:15:11.431Z,4.32
2018-12-15T01:18:36.085Z,4.34
2018-12-15T01:22:00.727Z,4.32
2018-12-15T01:25:25.404Z,4.43
2018-12-15T01:28:50.055Z,4.45
2018-12-15T01:32:14.839Z,4.26
2018-12-15T01:35:39.644Z,4.32
2018-12-15T01:39:06.695Z,4.54
2018-12-15T01:42:31.378Z,4.44
2018-12-15T01:45:56.209Z,4.40
2018-12-15T01:49:21.029Z,4.34
2018-12-15T01:52:45.752Z,4.41
2018-12-15T01:56:10.415Z,4.27
2018-12-15T01:59:35.121Z,4.25
2018-12-15T02:02:59.856Z,4.26
2018-12-15T02:06:24.544Z,4.31
2018-12-15T02:09:49.180Z,4.40
2018-12-15T02:13:13.894Z,4.31
2018-12-15T02:16:38.616Z,4.05
2018-12-15T02:20:03.726Z,4.18
2018-12-15T02:23:28.482Z,4.19
2018-12-15T02:26:53.329Z,4.29
2018-12-15T02:30:18.000Z,4.27
2018-12-15T02:33:42.746Z,4.34
2018-12-15T02:37:07.461Z,4.22
2018-12-15T02:40:32.199Z,4.15
2018-12-15T02:43:57.039Z,4.15
2018-12-15T02:47:21.770Z,4.16
2018-12-15T02:50:46.555Z,4.19
2018-12-15T02:54:11.216Z,4.18
2018-12-15T02:57:35.921Z,4.05
2018-12-15T03:01:00.755Z,4.22
2018-12-15T03:04:25.518Z,4.06
2018-12-15T03:11:54.835Z,4.33
2018-12-15T03:15:19.470Z,4.38
2018-12-15T03:18:44.116Z,4.17
2018-12-15T03:22:08.769Z,4.27
2018-12-15T03:25:33.431Z,4.17
2018-12-15T03:28:58.093Z,4.16
2018-12-15T03:32:22.813Z,4.17
2018-12-15T03:35:47.470Z,4.18
2018-12-15T03:39:12.139Z,4.25
2018-12-15T03:42:36.843Z,4.11
2018-12-15T03:46:01.570Z,4.27
2018-12-15T03:49:26.256Z,4.21
2018-12-15T03:52:50.942Z,4.07
2018-12-15T03:56:15.604Z,4.26
2018-12-15T03:59:40.463Z,4.19
2018-12-15T04:03:05.191Z,4.18
2018-12-15T04:06:29.932Z,4.16
2018-12-15T04:09:54.604Z,4.23
2018-12-15T04:13:19.294Z,4.00
2018-12-15T04:16:44.024Z,4.08
2018-12-15T04:20:08.730Z,4.16
2018-12-15T04:23:33.410Z,4.07
2018-12-15T04:26:58.084Z,4.08
2018-12-15T04:30:22.719Z,4.21
2018-12-15T04:33:47.367Z,4.17
2018-12-15T04:37:11.996Z,4.01
2018-12-15T04:40:36.907Z,3.90
2018-12-15T04:44:01.790Z,4.22
2018-12-15T04:47:26.668Z,4.22
2018-12-15T04:50:51.354Z,4.11
2018-12-15T04:54:16.017Z,4.17
2018-12-15T04:57:40.758Z,4.05
2018-12-15T05:01:05.476Z,4.11
2018-12-15T05:04:30.278Z,4.08
2018-12-15T05:07:55.025Z,4.00
2018-12-15T05:11:19.737Z,3.82
2018-12-15T05:14:44.483Z,3.79
2018-12-15T05:18:09.240Z,3.82
2018-12-15T05:21:33.914Z,3.89
2018-12-15T05:24:58.896Z,3.87
2018-12-15T05:28:23.706Z,3.97
2018-12-15T05:31:48.413Z,3.97
2018-12-15T05:35:13.120Z,3.74
2018-12-15T05:38:37.798Z,3.95
2018-12-15T05:42:02.520Z,3.99
2018-12-15T05:45:27.196Z,3.85
2018-12-15T05:48:51.846Z,3.92
2018-12-15T05:52:16.557Z,3.97
2018-12-15T05:55:41.259Z,3.83
2018-12-15T05:59:05.997Z,3.88
2018-12-15T06:02:31.054Z,3.69
2018-12-15T06:05:55.669Z,3.75
2018-12-15T06:09:20.379Z,3.89
2018-12-15T06:12:45.088Z,3.89
2018-12-15T06:16:09.767Z,4.00
2018-12-15T06:19:34.466Z,3.99
2018-12-15T06:22:59.133Z,3.85
2018-12-15T06:26:23.868Z,3.96
2018-12-15T06:29:48.522Z,4.21
2018-12-15T06:33:13.411Z,4.07
2018-12-15T06:36:38.876Z,3.96
2018-12-15T06:40:03.730Z,3.77
2018-12-15T06:43:28.992Z,3.61
2018-12-15T06:46:53.724Z,3.96
2018-12-15T06:50:18.435Z,3.85
2018-12-15T06:53:43.083Z,4.06
2018-12-15T06:57:08.020Z,3.66
2018-12-15T07:00:32.877Z,3.91
2018-12-15T07:03:57.531Z,3.92
2018-12-15T07:07:22.526Z,3.64
2018-12-15T07:10:47.284Z,3.74
2018-12-15T07:14:12.060Z,3.79
2018-12-15T07:17:37.417Z,3.76
2018-12-15T07:21:02.322Z,3.53
2018-12-15T07:24:26.986Z,3.79
2018-12-15T07:27:51.708Z,3.89
2018-12-15T07:31:16.611Z,3.86
2018-12-15T07:34:41.292Z,3.89
2018-12-15T07:38:06.035Z,3.77
2018-12-15T07:41:30.851Z,3.84
2018-12-15T07:44:55.543Z,3.81
2018-12-15T07:48:24.792Z,3.65
2018-12-15T07:51:49.572Z,3.93
2018-12-15T07:55:14.413Z,3.73
2018-12-15T07:58:39.127Z,3.77
2018-12-15T08:05:40.240Z,4.07
2018-12-15T08:09:07.842Z,3.93
2018-12-15T08:12:42.045Z,3.84
2018-12-15T08:16:06.884Z,3.96
2018-12-15T08:19:31.676Z,3.99
2018-12-15T08:22:56.537Z,4.16
2018-12-15T08:26:21.235Z,3.99
2018-12-15T08:29:45.941Z,4.15
2018-12-15T08:33:10.672Z,3.88
2018-12-15T08:36:35.354Z,4.03
2018-12-15T08:40:00.044Z,4.02
2018-12-15T08:43:24.699Z,4.13
2018-12-15T08:46:49.466Z,4.04
2018-12-15T08:50:14.100Z,4.40
2018-12-15T08:53:38.836Z,4.11
2018-12-15T08:57:03.570Z,4.00
2018-12-15T09:00:28.340Z,4.00
2018-12-15T09:03:53.007Z,4.27
2018-12-15T09:07:17.775Z,4.00
2018-12-15T09:10:42.516Z,4.11
2018-12-15T09:14:07.353Z,4.15
2018-12-15T09:17:32.153Z,4.27
2018-12-15T09:20:56.875Z,4.33
2018-12-15T09:24:22.174Z,4.31
2018-12-15T09:27:46.911Z,4.33
2018-12-15T09:31:11.633Z,4.21
2018-12-15T09:34:36.320Z,4.38
2018-12-15T09:38:01.090Z,4.24
2018-12-15T09:45:03.580Z,4.39
2018-12-15T09:48:28.280Z,4.16
2018-12-15T09:51:52.923Z,4.45
2018-12-15T09:55:17.631Z,4.26
2018-12-15T09:58:42.326Z,4.48
2018-12-15T10:02:07.427Z,4.55
2018-12-15T10:05:32.168Z,4.45
2018-12-15T10:08:56.870Z,4.03
2018-12-15T10:12:21.602Z,4.45
2018-12-15T10:15:46.423Z,4.39
2018-12-15T10:19:11.086Z,4.48
2018-12-15T10:22:35.882Z,4.51
2018-12-15T10:26:00.693Z,4.51
2018-12-15T10:29:30.463Z,4.66
2018-12-15T10:32:55.183Z,4.20
2018-12-15T10:36:19.864Z,4.29
2018-12-15T10:39:44.560Z,6.36
2018-12-15T10:43:09.387Z,5.99
2018-12-15T10:46:34.055Z,5.39
2018-12-15T10:49:59.446Z,5.02
2018-12-15T10:53:31.799Z,4.69
2018-12-15T10:56:56.581Z,4.69
2018-12-15T11:00:29.369Z,4.73
2018-12-15T11:08:14.249Z,4.29
2018-12-15T11:11:39.053Z,4.21
2018-12-15T11:15:03.834Z,4.41
2018-12-15T11:18:30.720Z,4.37
2018-12-15T11:21:55.367Z,4.25
2018-12-15T11:25:20.132Z,4.39
2018-12-15T11:28:44.866Z,4.19
2018-12-15T11:32:09.648Z,4.08
2018-12-15T11:35:34.316Z,4.47
2018-12-15T11:38:59.025Z,4.63
2018-12-15T11:42:23.692Z,4.45
2018-12-15T11:45:48.476Z,4.29
2018-12-15T11:49:13.224Z,4.48
2018-12-15T11:52:37.960Z,4.57
2018-12-15T11:56:02.736Z,4.47
2018-12-15T11:59:27.481Z,4.43
2018-12-15T12:02:52.800Z,4.65
2018-12-15T12:06:17.539Z,4.73
2018-12-15T12:09:42.413Z,4.70
2018-12-15T12:13:07.805Z,4.65
2018-12-15T12:16:32.702Z,4.50
2018-12-15T12:19:57.450Z,4.58
2018-12-15T12:23:22.232Z,4.77
2018-12-15T12:26:47.086Z,4.71
2018-12-15T12:30:12.019Z,4.45
2018-12-15T12:33:36.825Z,4.55
2018-12-15T12:37:02.253Z,4.85
2018-12-15T12:40:26.993Z,4.46
2018-12-15T12:43:51.777Z,4.38
2018-12-15T12:47:16.663Z,4.47
2018-12-15T12:50:41.340Z,4.35
2018-12-15T12:54:07.106Z,4.16
2018-12-15T12:57:31.847Z,4.28
2018-12-15T13:00:56.776Z,3.96
2018-12-15T13:04:21.560Z,4.24
2018-12-15T13:07:46.308Z,4.39
2018-12-15T13:11:11.873Z,4.61
2018-12-15T13:14:41.855Z,4.33
2018-12-15T13:18:12.223Z,4.23
2018-12-15T13:21:36.984Z,4.38
2018-12-15T13:25:01.717Z,4.51
2018-12-15T13:28:29.430Z,4.45
2018-12-15T13:31:54.847Z,4.82
2018-12-15T13:35:19.625Z,4.78
2018-12-15T13:38:45.709Z,4.73
2018-12-15T13:42:10.714Z,4.90
2018-12-15T13:45:35.461Z,4.87
2018-12-15T13:49:00.252Z,4.53
2018-12-15T13:52:24.965Z,4.77
2018-12-15T13:55:49.771Z,4.73
2018-12-15T13:59:14.603Z,4.53
2018-12-15T14:02:39.322Z,4.61
2018-12-15T14:06:04.053Z,4.70
2018-12-15T14:09:28.720Z,4.61
2018-12-15T14:12:53.435Z,4.49
2018-12-15T14:16:18.130Z,4.57
2018-12-15T14:19:42.808Z,4.66
2018-12-15T14:23:07.423Z,4.64
2018-12-15T14:26:32.181Z,4.28
2018-12-15T14:29:56.892Z,4.42
2018-12-15T14:33:21.615Z,4.05
2018-12-15T14:36:46.380Z,4.22
2018-12-15T14:40:11.200Z,4.04
2018-12-15T14:43:35.914Z,4.35
2018-12-15T14:47:00.745Z,4.33
2018-12-15T14:50:25.480Z,4.29
2018-12-15T14:53:50.212Z,4.29
2018-12-15T14:57:17.198Z,4.29
2018-12-15T15:00:41.860Z,4.01
2018-12-15T15:04:06.593Z,3.89
2018-12-15T15:07:31.542Z,4.13
2018-12-15T15:10:56.267Z,4.36
2018-12-15T15:14:21.478Z,3.91
2018-12-15T15:17:46.266Z,3.87
2018-12-15T15:21:11.133Z,3.70
2018-12-15T15:24:35.886Z,3.63
2018-12-15T15:28:00.613Z,3.70
2018-12-15T15:31:25.287Z,3.71
2018-12-15T15:34:50.032Z,3.74
2018-12-15T15:38:14.821Z,3.55
2018-12-15T15:41:39.601Z,3.48
2018-12-15T15:45:04.725Z,3.48
2018-12-15T15:48:29.453Z,3.60
2018-12-15T15:51:54.217Z,3.25
2018-12-15T15:55:18.909Z,3.53
2018-12-15T15:58:43.570Z,3.56
2018-12-15T16:02:08.573Z,3.17
2018-12-15T16:05:33.405Z,2.95
2018-12-15T16:08:58.466Z,3.09
2018-12-15T16:12:23.108Z,3.23
2018-12-15T16:15:47.852Z,3.40
2018-12-15T16:19:12.530Z,3.23
2018-12-15T16:22:37.225Z,3.11
2018-12-15T16:26:01.926Z,3.22
2018-12-15T16:29:26.618Z,3.37
2018-12-15T16:32:51.363Z,3.38
2018-12-15T16:36:16.067Z,3.43
2018-12-15T16:39:40.796Z,3.49
2018-12-15T16:43:05.798Z,3.25
2018-12-15T16:46:31.023Z,3.11
2018-12-15T16:49:55.780Z,3.09
2018-12-15T16:53:20.525Z,3.11
2018-12-15T16:56:45.256Z,3.11
2018-12-15T17:00:15.259Z,3.18
2018-12-15T17:03:39.951Z,3.15
2018-12-15T17:07:04.814Z,2.92
2018-12-15T17:10:29.543Z,3.27
2018-12-15T17:13:54.248Z,3.01
2018-12-15T17:17:19.046Z,3.03
2018-12-15T17:20:43.828Z,3.02
2018-12-15T17:24:08.656Z,2.88
2018-12-15T17:27:34.013Z,2.78
2018-12-15T17:30:58.828Z,2.97
2018-12-15T17:34:23.518Z,2.97
2018-12-15T17:37:48.221Z,2.66
2018-12-15T17:41:12.933Z,2.74
2018-12-15T17:44:37.862Z,2.73
2018-12-15T17:48:03.008Z,2.76
2018-12-15T17:51:27.815Z,2.82
2018-12-15T17:54:52.763Z,2.84
2018-12-15T17:58:17.527Z,2.75
2018-12-15T18:01:42.273Z,2.92
2018-12-15T18:05:07.329Z,2.78
2018-12-15T18:08:32.115Z,2.86
2018-12-15T18:11:56.970Z,2.75
2018-12-15T18:15:21.735Z,2.66
2018-12-15T18:18:46.684Z,2.49
2018-12-15T18:22:11.495Z,2.68
2018-12-15T18:25:36.169Z,2.80
2018-12-15T18:29:00.888Z,2.55
2018-12-15T18:32:25.807Z,2.72
2018-12-15T18:35:50.504Z,2.42
2018-12-15T18:39:16.432Z,2.67
2018-12-15T18:42:41.156Z,2.47
2018-12-15T18:46:06.046Z,2.62
2018-12-15T18:49:30.825Z,2.47
2018-12-15T18:52:55.746Z,2.65
2018-12-15T18:56:20.750Z,2.35
2018-12-15T18:59:45.559Z,2.72
2018-12-15T19:03:10.366Z,2.50
2018-12-15T19:06:37.249Z,2.41
2018-12-15T19:24:06.740Z,2.32
2018-12-15T19:31:05.239Z,2.41
2018-12-15T19:34:30.350Z,2.48
2018-12-15T19:37:56.222Z,2.44
2018-12-15T19:41:21.354Z,2.32
2018-12-15T19:44:47.072Z,2.19
2018-12-15T19:48:12.897Z,2.53
2018-12-15T19:51:38.949Z,2.37
2018-12-15T19:55:03.674Z,2.46
2018-12-15T19:58:29.090Z,2.41
2018-12-15T20:01:54.103Z,2.50
2018-12-15T20:05:19.983Z,2.30
2018-12-15T20:08:46.714Z,2.41
2018-12-15T20:12:30.090Z,2.47
2018-12-15T20:20:02.482Z,2.38
2018-12-15T20:23:27.492Z,2.56
2018-12-15T20:26:54.867Z,2.34
2018-12-15T20:30:20.709Z,2.45
2018-12-15T20:33:53.296Z,2.14
2018-12-15T20:37:17.982Z,2.42
2018-12-15T20:40:43.804Z,2.23
2018-12-15T20:44:10.731Z,2.13
2018-12-15T20:47:36.136Z,2.49
2018-12-15T20:51:01.844Z,2.20
2018-12-15T20:54:26.583Z,2.34
2018-12-15T20:57:51.292Z,2.48
2018-12-15T21:04:50.936Z,2.32
2018-12-15T21:08:15.715Z,2.28
2018-12-15T21:11:41.201Z,2.35
2018-12-15T21:15:16.391Z,2.34
2018-12-15T21:18:41.135Z,2.39
2018-12-15T21:22:11.383Z,2.40
2018-12-15T21:25:36.052Z,2.60
2018-12-15T21:29:00.774Z,2.46
2018-12-15T21:32:25.652Z,2.57
2018-12-15T21:35:50.362Z,2.30
2018-12-15T21:39:15.052Z,2.45
2018-12-15T21:42:39.760Z,2.42
2018-12-15T21:46:04.587Z,2.53
2018-12-15T21:49:29.304Z,2.39
2018-12-15T21:52:54.140Z,2.55
2018-12-15T21:56:18.972Z,2.76
2018-12-15T21:59:43.773Z,2.79
2018-12-15T22:03:08.464Z,2.28
2018-12-15T22:06:33.217Z,2.48
2018-12-15T22:09:57.927Z,2.52
2018-12-15T22:13:22.742Z,2.45
2018-12-15T22:16:47.525Z,2.47
2018-12-15T22:20:12.521Z,2.51
2018-12-15T22:23:37.290Z,2.70
2018-12-15T22:27:02.067Z,2.66
2018-12-15T22:30:26.828Z,2.57
2018-12-15T22:33:51.601Z,2.66
2018-12-15T22:37:16.590Z,2.72
2018-12-15T22:40:41.366Z,2.60
2018-12-15T22:44:07.822Z,2.60
2018-12-15T22:47:32.593Z,2.57
2018-12-15T22:51:12.464Z,2.42
2018-12-15T22:54:37.243Z,2.56
2018-12-15T22:58:02.011Z,2.74
2018-12-15T23:01:26.835Z,2.75
2018-12-15T23:04:52.447Z,2.56
2018-12-15T23:08:17.561Z,2.68
2018-12-15T23:11:42.536Z,2.66
2018-12-15T23:15:08.917Z,2.62
2018-12-15T23:18:33.759Z,2.75
2018-12-15T23:21:58.733Z,2.72
2018-12-15T23:25:23.580Z,2.79
2018-12-15T23:28:48.424Z,2.88
2018-12-15T23:32:13.487Z,2.87
2018-12-15T23:35:38.369Z,2.91
2018-12-15T23:39:03.771Z,2.81
2018-12-15T23:42:28.500Z,2.73
2018-12-15T23:45:53.259Z,3.02
2018-12-15T23:49:17.990Z,2.84
2018-12-15T23:52:42.735Z,3.13
2018-12-15T23:56:07.485Z,2.94
2018-12-15T23:59:32.257Z,2.87
